createdAt,value
2023-03-26T00:01:41.505Z,99207.38
2023-03-26T00:04:09.845Z,99204.84
2023-03-26T00:06:41.664Z,99200.94
2023-03-26T00:09:14.074Z,99205.34
2023-03-26T00:11:42.939Z,99208.13
2023-03-26T00:14:13.719Z,99201.78
2023-03-26T00:16:43.045Z,99199.34
2023-03-26T00:19:12.549Z,99201.66
2023-03-26T00:21:41.394Z,99200.00
2023-03-26T00:24:15.056Z,99195.16
2023-03-26T00:26:44.607Z,99203.69
2023-03-26T00:29:13.872Z,99202.59
2023-03-26T00:31:46.168Z,99201.66
2023-03-26T00:34:15.661Z,99198.31
2023-03-26T00:36:44.111Z,99191.69
2023-03-26T00:39:14.060Z,99188.13
2023-03-26T00:41:43.713Z,99196.06
2023-03-26T00:44:12.475Z,99190.47
2023-03-26T00:46:41.074Z,99187.09
2023-03-26T00:49:11.004Z,99176.88
2023-03-26T00:51:39.693Z,99176.06
2023-03-26T00:54:10.968Z,99174.47
2023-03-26T00:56:40.699Z,99170.97
2023-03-26T00:59:09.357Z,99181.34
2023-03-26T01:01:37.908Z,99166.47
2023-03-26T01:04:30.619Z,99163.16
2023-03-26T01:07:03.048Z,99162.53
2023-03-26T01:09:36.626Z,99153.34
2023-03-26T01:12:11.810Z,99151.19
2023-03-26T01:14:40.634Z,99157.00
2023-03-26T01:17:12.388Z,99152.09
2023-03-26T01:19:49.470Z,99150.66
2023-03-26T01:22:21.630Z,99145.69
2023-03-26T01:24:56.118Z,99139.06
2023-03-26T01:27:38.776Z,99141.69
2023-03-26T01:30:16.942Z,99135.59
2023-03-26T01:33:13.791Z,99131.38
2023-03-26T01:35:53.586Z,99135.59
2023-03-26T01:38:35.410Z,99132.00
2023-03-26T01:41:10.261Z,99119.91
2023-03-26T01:43:47.041Z,99116.94
2023-03-26T01:46:17.051Z,99117.00
2023-03-26T01:48:47.800Z,99113.69
2023-03-26T01:51:27.851Z,99106.47
2023-03-26T01:53:59.410Z,99108.88
2023-03-26T01:56:37.133Z,99105.97
2023-03-26T01:59:21.410Z,99106.84
2023-03-26T02:02:01.229Z,99087.44
2023-03-26T02:04:41.045Z,99091.22
2023-03-26T02:07:17.811Z,99082.88
2023-03-26T02:09:52.574Z,99079.31
2023-03-26T02:12:24.781Z,99066.59
2023-03-26T02:14:54.717Z,99064.03
2023-03-26T02:17:24.295Z,99061.22
2023-03-26T02:19:54.244Z,99048.38
2023-03-26T02:22:22.733Z,99055.34
2023-03-26T02:24:50.979Z,99049.72
2023-03-26T02:27:19.404Z,99048.44
2023-03-26T02:29:50.250Z,99043.91
2023-03-26T02:32:21.997Z,99038.16
2023-03-26T02:34:51.244Z,99033.59
2023-03-26T02:37:19.725Z,99031.53
2023-03-26T02:39:51.945Z,99028.28
2023-03-26T02:42:29.214Z,99027.59
2023-03-26T02:44:59.039Z,99024.34
2023-03-26T02:47:53.122Z,99014.25
2023-03-26T02:50:50.221Z,99006.88
2023-03-26T02:53:51.118Z,99001.38
2023-03-26T02:56:34.542Z,98995.38
2023-03-26T02:59:21.339Z,98992.78
2023-03-26T03:02:01.122Z,98985.97
2023-03-26T03:04:33.112Z,98985.16
2023-03-26T03:07:01.363Z,98973.13
2023-03-26T03:09:29.776Z,98969.56
2023-03-26T03:12:18.409Z,98967.09
2023-03-26T03:14:46.638Z,98955.72
2023-03-26T03:17:16.135Z,98950.84
2023-03-26T03:19:45.242Z,98943.97
2023-03-26T03:22:13.523Z,98940.88
2023-03-26T03:24:43.757Z,98941.72
2023-03-26T03:27:12.525Z,98939.22
2023-03-26T03:29:48.575Z,98942.31
2023-03-26T03:32:43.639Z,98935.16
2023-03-26T03:35:12.674Z,98925.41
2023-03-26T03:37:43.400Z,98910.91
2023-03-26T03:40:12.414Z,98914.84
2023-03-26T03:42:41.214Z,98913.53
2023-03-26T03:45:12.160Z,98902.59
2023-03-26T03:47:44.725Z,98896.13
2023-03-26T03:50:14.491Z,98894.81
2023-03-26T03:52:55.796Z,98899.03
2023-03-26T03:55:27.474Z,98894.63
2023-03-26T03:57:56.189Z,98888.63
2023-03-26T04:00:26.270Z,98885.06
2023-03-26T04:03:16.121Z,98878.56
2023-03-26T04:05:49.363Z,98885.38
2023-03-26T04:08:18.598Z,98877.72
2023-03-26T04:10:51.480Z,98884.41
2023-03-26T04:13:45.861Z,98872.38
2023-03-26T04:16:52.237Z,98874.31
2023-03-26T04:19:22.356Z,98873.66
2023-03-26T04:21:50.685Z,98865.38
2023-03-26T04:24:22.355Z,98857.31
2023-03-26T04:27:17.663Z,98851.63
2023-03-26T04:29:47.943Z,98843.94
2023-03-26T04:32:26.484Z,98846.72
2023-03-26T04:35:00.202Z,98840.00
2023-03-26T04:37:34.293Z,98832.06
2023-03-26T04:40:18.364Z,98827.31
2023-03-26T04:43:03.464Z,98817.56
2023-03-26T04:46:04.570Z,98813.00
2023-03-26T04:48:41.762Z,98813.97
2023-03-26T04:51:18.356Z,98804.19
2023-03-26T04:53:55.180Z,98802.47
2023-03-26T04:56:43.207Z,98797.00
2023-03-26T04:59:26.408Z,98787.25
2023-03-26T05:01:57.877Z,98781.13
2023-03-26T05:04:29.435Z,98774.13
2023-03-26T05:07:01.126Z,98772.00
2023-03-26T05:09:41.655Z,98767.91
2023-03-26T05:12:16.482Z,98774.28
2023-03-26T05:14:58.831Z,98765.66
2023-03-26T05:17:41.803Z,98757.34
2023-03-26T05:20:21.321Z,98757.66
2023-03-26T05:22:51.994Z,98749.19
2023-03-26T05:25:27.360Z,98744.81
2023-03-26T05:27:56.369Z,98738.97
2023-03-26T05:30:29.044Z,98734.44
2023-03-26T05:33:04.212Z,98734.75
2023-03-26T05:35:41.574Z,98729.22
2023-03-26T05:38:12.959Z,98726.94
2023-03-26T05:40:41.200Z,98730.03
2023-03-26T05:43:10.334Z,98723.69
2023-03-26T05:45:42.550Z,98722.38
2023-03-26T05:48:18.860Z,98719.47
2023-03-26T05:50:49.607Z,98716.69
2023-03-26T05:53:21.377Z,98705.78
2023-03-26T05:56:09.315Z,98705.63
2023-03-26T05:58:57.516Z,98693.59
2023-03-26T06:01:44.952Z,98693.13
2023-03-26T06:04:16.026Z,98691.50
2023-03-26T06:06:54.154Z,98687.94
2023-03-26T06:09:23.877Z,98682.41
2023-03-26T06:11:52.117Z,98681.41
2023-03-26T06:14:20.735Z,98678.47
2023-03-26T06:17:09.568Z,98681.09
2023-03-26T06:19:58.526Z,98673.94
2023-03-26T06:22:36.061Z,98678.03
2023-03-26T06:25:23.349Z,98681.06
2023-03-26T06:28:11.881Z,98668.28
2023-03-26T06:31:01.716Z,98668.41
2023-03-26T06:33:37.609Z,98671.38
2023-03-26T06:36:07.888Z,98666.78
2023-03-26T06:38:36.502Z,98660.31
2023-03-26T06:41:09.009Z,98655.09
2023-03-26T06:43:59.753Z,98657.69
2023-03-26T06:46:48.371Z,98658.19
2023-03-26T06:49:35.457Z,98655.41
2023-03-26T06:52:17.825Z,98645.47
2023-03-26T06:55:06.432Z,98645.31
2023-03-26T06:57:51.161Z,98646.16
2023-03-26T07:00:39.739Z,98641.59
2023-03-26T07:03:43.168Z,98633.28
2023-03-26T07:06:37.766Z,98634.09
2023-03-26T07:09:26.148Z,98638.81
2023-03-26T07:12:12.981Z,98631.03
2023-03-26T07:15:21.002Z,98625.50
2023-03-26T07:17:54.777Z,98620.91
2023-03-26T07:20:26.994Z,98611.72
2023-03-26T07:22:56.437Z,98605.16
2023-03-26T07:25:36.893Z,98601.41
2023-03-26T07:28:19.319Z,98601.88
2023-03-26T07:31:27.086Z,98596.09
2023-03-26T07:34:32.640Z,98598.72
2023-03-26T07:37:35.982Z,98591.59
2023-03-26T07:40:34.276Z,98596.69
2023-03-26T07:43:39.104Z,98587.75
2023-03-26T07:46:14.783Z,98580.59
2023-03-26T07:49:04.557Z,98585.97
2023-03-26T07:51:43.435Z,98574.91
2023-03-26T07:54:38.654Z,98570.84
2023-03-26T07:57:44.144Z,98581.81
2023-03-26T08:00:31.434Z,98576.31
2023-03-26T08:03:28.195Z,98567.84
2023-03-26T08:06:23.517Z,98564.16
2023-03-26T08:09:17.200Z,98557.47
2023-03-26T08:12:08.155Z,98552.25
2023-03-26T08:14:52.377Z,98550.81
2023-03-26T08:17:31.512Z,98543.50
2023-03-26T08:20:17.095Z,98545.13
2023-03-26T08:22:51.801Z,98537.34
2023-03-26T08:25:29.595Z,98530.19
2023-03-26T08:28:16.380Z,98529.38
2023-03-26T08:30:46.895Z,98529.72
2023-03-26T08:33:19.035Z,98533.44
2023-03-26T08:35:50.090Z,98533.44
2023-03-26T08:38:20.903Z,98523.38
2023-03-26T08:41:43.631Z,98520.63
2023-03-26T08:44:47.676Z,98520.63
2023-03-26T08:47:50.315Z,98511.19
2023-03-26T08:51:03.596Z,98513.31
2023-03-26T08:54:03.269Z,98509.09
2023-03-26T08:56:46.124Z,98508.28
2023-03-26T08:59:55.760Z,98504.53
2023-03-26T09:03:08.135Z,98502.13
2023-03-26T09:06:38.164Z,98493.34
2023-03-26T09:10:03.857Z,98489.09
2023-03-26T09:13:15.333Z,98487.47
2023-03-26T09:16:29.697Z,98482.28
2023-03-26T09:19:40.790Z,98481.00
2023-03-26T09:22:41.736Z,98481.59
2023-03-26T09:25:44.563Z,98477.22
2023-03-26T09:28:53.331Z,98474.63
2023-03-26T09:32:15.699Z,98469.22
2023-03-26T09:35:13.063Z,98464.53
2023-03-26T09:38:01.810Z,98457.53
2023-03-26T09:40:45.957Z,98450.63
2023-03-26T09:44:12.610Z,98452.22
2023-03-26T09:46:55.393Z,98449.91
2023-03-26T09:49:54.618Z,98451.72
2023-03-26T09:52:53.847Z,98447.31
2023-03-26T09:55:46.032Z,98441.41
2023-03-26T09:58:42.866Z,98447.56
2023-03-26T10:01:19.201Z,98437.31
2023-03-26T10:03:59.203Z,98439.03
2023-03-26T10:06:44.374Z,98437.25
2023-03-26T10:09:27.765Z,98428.56
2023-03-26T10:12:13.772Z,98424.03
2023-03-26T10:14:48.402Z,98420.28
2023-03-26T10:17:44.543Z,98421.59
2023-03-26T10:20:37.533Z,98426.63
2023-03-26T10:23:27.500Z,98439.00
2023-03-26T10:26:41.745Z,98428.28
2023-03-26T10:30:29.543Z,98425.00
2023-03-26T10:33:14.669Z,98420.69
2023-03-26T10:36:07.213Z,98419.41
2023-03-26T10:39:07.564Z,98410.22
2023-03-26T10:41:46.281Z,98444.66
2023-03-26T10:44:44.850Z,98446.53
2023-03-26T10:47:35.621Z,98433.94
2023-03-26T10:50:29.416Z,98440.06
2023-03-26T10:53:04.151Z,98428.47
2023-03-26T10:55:38.689Z,98435.75
2023-03-26T10:58:18.529Z,98433.28
2023-03-26T11:00:56.600Z,98433.09
2023-03-26T11:03:56.305Z,98418.94
2023-03-26T11:06:36.783Z,98417.69
2023-03-26T11:09:18.023Z,98420.78
2023-03-26T11:11:56.811Z,98418.09
2023-03-26T11:14:34.958Z,98415.47
2023-03-26T11:17:40.865Z,98410.72
2023-03-26T11:20:14.411Z,98416.22
2023-03-26T11:23:00.315Z,98422.59
2023-03-26T11:25:52.086Z,98417.59
2023-03-26T11:28:36.384Z,98422.16
2023-03-26T11:31:20.808Z,98420.81
2023-03-26T11:33:57.607Z,98432.47
2023-03-26T11:36:35.753Z,98424.25
2023-03-26T11:39:10.381Z,98425.13
2023-03-26T11:41:38.751Z,98426.19
2023-03-26T11:44:21.734Z,98431.09
2023-03-26T11:46:58.791Z,98433.47
2023-03-26T11:49:29.363Z,98425.34
2023-03-26T11:52:00.883Z,98431.94
2023-03-26T11:54:29.216Z,98433.97
2023-03-26T11:57:07.350Z,98427.91
2023-03-26T11:59:55.586Z,98434.00
2023-03-26T12:02:32.348Z,98441.06
2023-03-26T12:05:20.803Z,98441.66
2023-03-26T12:07:56.730Z,98447.72
2023-03-26T12:10:31.033Z,98452.78
2023-03-26T12:13:02.816Z,98447.38
2023-03-26T12:15:32.399Z,98452.09
2023-03-26T12:18:18.644Z,98459.66
2023-03-26T12:20:48.141Z,98461.47
2023-03-26T12:23:52.492Z,98461.50
2023-03-26T12:26:22.387Z,98468.72
2023-03-26T12:28:51.759Z,98471.16
2023-03-26T12:31:20.876Z,98466.16
2023-03-26T12:34:08.182Z,98470.41
2023-03-26T12:36:38.908Z,98470.91
2023-03-26T12:40:09.142Z,98474.16
2023-03-26T12:44:51.312Z,98475.50
2023-03-26T12:45:24.207Z,98473.75
2023-03-26T12:48:01.514Z,98482.44
2023-03-26T12:50:45.904Z,98479.25
2023-03-26T12:53:59.340Z,98479.94
2023-03-26T12:56:36.769Z,98484.97
2023-03-26T12:59:33.362Z,98484.28
2023-03-26T13:02:29.409Z,98494.47
2023-03-26T13:05:15.936Z,98487.81
2023-03-26T13:08:05.166Z,98490.28
2023-03-26T13:10:51.850Z,98495.41
2023-03-26T13:13:56.412Z,98492.88
2023-03-26T13:16:36.035Z,98498.63
2023-03-26T13:19:10.904Z,98502.16
2023-03-26T13:22:01.301Z,98502.38
2023-03-26T13:24:47.289Z,98513.34
2023-03-26T13:27:36.387Z,98511.59
2023-03-26T13:30:19.075Z,98498.81
2023-03-26T13:33:04.327Z,98506.22
2023-03-26T13:35:40.750Z,98510.22
2023-03-26T13:38:15.971Z,98500.84
2023-03-26T13:40:58.382Z,98512.03
2023-03-26T13:43:55.432Z,98509.28
2023-03-26T13:46:38.150Z,98511.53
2023-03-26T13:49:12.828Z,98506.47
2023-03-26T13:51:45.812Z,98505.94
2023-03-26T13:54:23.614Z,98508.91
2023-03-26T13:57:00.870Z,98512.47
2023-03-26T13:59:37.026Z,98511.34
2023-03-26T14:02:13.263Z,98523.00
2023-03-26T14:04:46.398Z,98514.97
2023-03-26T14:07:22.435Z,98517.81
2023-03-26T14:09:57.671Z,98518.25
2023-03-26T14:12:51.168Z,98514.03
2023-03-26T14:15:27.664Z,98515.34
2023-03-26T14:18:07.622Z,98525.25
2023-03-26T14:21:18.031Z,98525.66
2023-03-26T14:24:26.020Z,98533.13
2023-03-26T14:27:25.705Z,98535.25
2023-03-26T14:30:14.388Z,98537.03
2023-03-26T14:33:01.106Z,98540.81
2023-03-26T14:35:38.530Z,98536.56
2023-03-26T14:38:34.198Z,98548.06
2023-03-26T14:41:23.871Z,98549.09
2023-03-26T14:44:49.286Z,98562.28
2023-03-26T14:47:20.605Z,98558.03
2023-03-26T14:50:35.768Z,98565.66
2023-03-26T14:53:17.209Z,98566.69
2023-03-26T14:56:16.660Z,98575.31
2023-03-26T14:59:42.776Z,98574.63
2023-03-26T15:03:02.947Z,98589.78
2023-03-26T15:06:16.395Z,98592.34
2023-03-26T15:09:49.097Z,98602.72
2023-03-26T15:12:49.502Z,98607.50
2023-03-26T15:16:09.123Z,98609.44
2023-03-26T15:19:42.421Z,98615.44
2023-03-26T15:23:00.791Z,98625.03
2023-03-26T15:26:02.490Z,98627.78
2023-03-26T15:29:04.326Z,98632.63
2023-03-26T15:32:08.599Z,98639.94
2023-03-26T15:35:27.270Z,98638.22
2023-03-26T15:38:44.083Z,98642.25
2023-03-26T15:41:24.419Z,98649.25
2023-03-26T15:44:27.321Z,98659.63
2023-03-26T15:47:21.647Z,98650.69
2023-03-26T15:49:55.293Z,98666.28
2023-03-26T15:52:32.232Z,98661.25
2023-03-26T15:55:10.493Z,98664.69
2023-03-26T15:57:47.952Z,98675.72
2023-03-26T16:00:25.251Z,98673.31
2023-03-26T16:03:12.717Z,98685.00
2023-03-26T16:05:55.623Z,98690.69
2023-03-26T16:08:30.630Z,98695.06
2023-03-26T16:11:04.161Z,98699.44
2023-03-26T16:13:39.480Z,98699.94
2023-03-26T16:16:50.631Z,98708.53
2023-03-26T16:19:52.950Z,98716.84
2023-03-26T16:22:47.303Z,98717.50
2023-03-26T16:25:33.174Z,98726.59
2023-03-26T16:28:36.770Z,98731.78
2023-03-26T16:31:37.878Z,98740.53
2023-03-26T16:34:27.669Z,98750.75
2023-03-26T16:36:56.708Z,98749.97
2023-03-26T16:39:39.131Z,98757.41
2023-03-26T16:42:36.510Z,98762.16
2023-03-26T16:45:20.863Z,98767.31
2023-03-26T16:48:01.954Z,98774.97
2023-03-26T16:50:44.937Z,98782.25
2023-03-26T16:53:35.999Z,98787.94
2023-03-26T16:56:15.647Z,98794.41
2023-03-26T16:58:56.242Z,98797.00
2023-03-26T17:01:43.020Z,98812.88
2023-03-26T17:04:20.437Z,98821.63
2023-03-26T17:07:04.388Z,98822.84
2023-03-26T17:09:44.489Z,98834.44
2023-03-26T17:12:23.806Z,98833.78
2023-03-26T17:15:06.570Z,98839.22
2023-03-26T17:17:51.151Z,98853.56
2023-03-26T17:20:35.821Z,98863.19
2023-03-26T17:23:27.660Z,98867.19
2023-03-26T17:26:07.454Z,98871.00
2023-03-26T17:29:23.767Z,98889.03
2023-03-26T17:32:01.660Z,98896.34
2023-03-26T17:34:56.744Z,98909.09
2023-03-26T17:37:55.989Z,98916.56
2023-03-26T17:40:51.030Z,98921.16
2023-03-26T17:43:46.053Z,98923.94
2023-03-26T17:46:31.749Z,98938.72
2023-03-26T17:49:08.602Z,98937.84
2023-03-26T17:51:48.372Z,98937.84
2023-03-26T17:54:25.203Z,98945.09
2023-03-26T17:56:57.025Z,98959.03
2023-03-26T17:59:28.228Z,98956.06
2023-03-26T18:02:00.935Z,98968.28
2023-03-26T18:04:36.332Z,98970.59
2023-03-26T18:07:52.835Z,98974.00
2023-03-26T18:10:39.790Z,98984.97
2023-03-26T18:13:50.919Z,98996.25
2023-03-26T18:16:32.668Z,98986.25
2023-03-26T18:19:23.566Z,99000.63
2023-03-26T18:22:02.229Z,99011.47
2023-03-26T18:24:38.236Z,99014.81
2023-03-26T18:27:15.372Z,99018.72
2023-03-26T18:29:46.647Z,99028.09
2023-03-26T18:32:26.355Z,99028.28
2023-03-26T18:34:59.444Z,99030.72
2023-03-26T18:37:34.399Z,99034.03
2023-03-26T18:40:50.782Z,99040.88
2023-03-26T18:43:34.427Z,99055.91
2023-03-26T18:46:05.628Z,99052.91
2023-03-26T18:48:35.233Z,99067.41
2023-03-26T18:51:07.273Z,99065.75
2023-03-26T18:53:42.013Z,99071.47
2023-03-26T18:56:28.903Z,99083.06
2023-03-26T18:59:01.115Z,99088.63
2023-03-26T19:01:47.444Z,99092.63
2023-03-26T19:04:17.609Z,99094.50
2023-03-26T19:06:46.829Z,99100.66
2023-03-26T19:09:30.972Z,99107.47
2023-03-26T19:12:08.310Z,99108.91
2023-03-26T19:14:57.359Z,99113.66
2023-03-26T19:17:36.158Z,99116.13
2023-03-26T19:20:09.180Z,99120.78
2023-03-26T19:22:41.326Z,99125.03
2023-03-26T19:25:22.423Z,99134.41
2023-03-26T19:27:51.812Z,99133.44
2023-03-26T19:30:32.975Z,99134.84
2023-03-26T19:33:15.812Z,99155.41
2023-03-26T19:35:53.684Z,99145.75
2023-03-26T19:38:29.703Z,99166.88
2023-03-26T19:41:01.681Z,99163.34
2023-03-26T19:43:33.120Z,99162.81
2023-03-26T19:46:05.887Z,99167.31
2023-03-26T19:48:45.580Z,99170.59
2023-03-26T19:51:22.516Z,99182.59
2023-03-26T19:54:00.250Z,99181.19
2023-03-26T19:56:28.742Z,99176.56
2023-03-26T19:58:58.180Z,99195.94
2023-03-26T20:01:30.028Z,99196.22
2023-03-26T20:04:02.336Z,99206.75
2023-03-26T20:06:42.514Z,99212.63
2023-03-26T20:09:13.335Z,99218.22
2023-03-26T20:11:42.130Z,99221.03
2023-03-26T20:14:16.688Z,99224.47
2023-03-26T20:16:46.498Z,99237.69
2023-03-26T20:19:15.557Z,99232.47
2023-03-26T20:21:44.716Z,99241.78
2023-03-26T20:24:15.942Z,99249.81
2023-03-26T20:26:45.092Z,99259.34
2023-03-26T20:29:13.905Z,99263.19
2023-03-26T20:31:42.786Z,99270.25
2023-03-26T20:34:18.938Z,99265.63
2023-03-26T20:36:47.694Z,99272.28
2023-03-26T20:39:16.160Z,99268.84
2023-03-26T20:41:50.995Z,99277.91
2023-03-26T20:44:22.420Z,99287.19
2023-03-26T20:46:51.615Z,99291.84
2023-03-26T20:49:22.173Z,99305.19
2023-03-26T20:51:50.395Z,99304.06
2023-03-26T20:54:21.514Z,99309.50
2023-03-26T20:56:50.348Z,99313.00
2023-03-26T20:59:22.306Z,99317.81
2023-03-26T21:01:52.115Z,99327.69
2023-03-26T21:04:22.907Z,99331.25
2023-03-26T21:06:53.362Z,99337.78
2023-03-26T21:09:25.120Z,99337.38
2023-03-26T21:12:06.935Z,99341.88
2023-03-26T21:14:41.349Z,99350.72
2023-03-26T21:17:16.773Z,99364.09
2023-03-26T21:19:48.251Z,99364.97
2023-03-26T21:22:36.568Z,99365.47
2023-03-26T21:25:17.030Z,99373.72
2023-03-26T21:27:59.445Z,99381.47
2023-03-26T21:30:28.676Z,99383.00
2023-03-26T21:32:57.181Z,99390.31
2023-03-26T21:35:28.505Z,99396.88
2023-03-26T21:37:58.257Z,99402.13
2023-03-26T21:40:27.921Z,99408.19
2023-03-26T21:42:56.978Z,99410.25
2023-03-26T21:45:26.682Z,99419.84
2023-03-26T21:47:55.852Z,99419.75
2023-03-26T21:50:27.431Z,99434.22
2023-03-26T21:52:56.581Z,99439.34
2023-03-26T21:55:26.940Z,99440.38
2023-03-26T21:58:31.537Z,99443.72
2023-03-26T22:01:20.624Z,99438.06
2023-03-26T22:04:04.697Z,99450.31
2023-03-26T22:06:42.773Z,99454.31
2023-03-26T22:09:15.020Z,99474.28
2023-03-26T22:11:45.159Z,99481.00
2023-03-26T22:14:14.158Z,99480.19
2023-03-26T22:16:42.534Z,99495.34
2023-03-26T22:19:12.451Z,99504.50
2023-03-26T22:21:41.989Z,99510.88
2023-03-26T22:24:10.197Z,99513.03
2023-03-26T22:26:38.683Z,99524.75
2023-03-26T22:29:07.086Z,99522.03
2023-03-26T22:31:36.064Z,99525.75
2023-03-26T22:34:04.960Z,99529.41
2023-03-26T22:36:33.256Z,99538.44
2023-03-26T22:39:05.690Z,99548.31
2023-03-26T22:41:33.859Z,99556.75
2023-03-26T22:44:16.796Z,99557.13
2023-03-26T22:46:51.112Z,99566.19
2023-03-26T22:49:19.837Z,99577.00
2023-03-26T22:51:48.080Z,99573.72
2023-03-26T22:54:18.284Z,99575.47
2023-03-26T22:56:46.731Z,99574.66
2023-03-26T22:59:15.256Z,99575.00
2023-03-26T23:01:44.054Z,99574.66
2023-03-26T23:04:12.846Z,99590.16
2023-03-26T23:06:59.662Z,99597.91
2023-03-26T23:09:32.009Z,99601.66
2023-03-26T23:12:00.446Z,99613.38
2023-03-26T23:14:32.227Z,99619.34
2023-03-26T23:17:01.296Z,99619.22
2023-03-26T23:19:30.399Z,99635.41
2023-03-26T23:21:58.785Z,99638.00
2023-03-26T23:24:29.994Z,99641.38
2023-03-26T23:26:59.891Z,99653.72
2023-03-26T23:29:29.966Z,99661.06
2023-03-26T23:31:58.297Z,99669.44
2023-03-26T23:34:26.675Z,99672.47
2023-03-26T23:36:54.785Z,99675.00
2023-03-26T23:39:25.476Z,99694.22
2023-03-26T23:41:55.088Z,99686.81
2023-03-26T23:44:23.255Z,99693.75
2023-03-26T23:46:57.929Z,99694.38
2023-03-26T23:49:27.898Z,99694.88
2023-03-26T23:51:56.223Z,99705.03
2023-03-26T23:54:25.487Z,99711.63
2023-03-26T23:56:55.095Z,99725.47
2023-03-26T23:59:23.454Z,99713.81
